sensor_id;sensor_type;location;lat;lon;timestamp;temperature;humidity
73939;DHT22;62291;47.554;8.504;2022-10-16T00:01:20;12.80;99.90
73939;DHT22;62291;47.554;8.504;2022-10-16T00:03:47;12.90;99.90
73939;DHT22;62291;47.554;8.504;2022-10-16T00:06:14;13.00;99.90
73939;DHT22;62291;47.554;8.504;2022-10-16T00:08:40;13.00;99.90
73939;DHT22;62291;47.554;8.504;2022-10-16T00:11:15;13.00;99.90
73939;DHT22;62291;47.554;8.504;2022-10-16T00:13:43;13.00;99.90
73939;DHT22;62291;47.554;8.504;2022-10-16T00:16:10;13.00;99.90
73939;DHT22;62291;47.554;8.504;2022-10-16T00:18:37;12.90;99.90
73939;DHT22;62291;47.554;8.504;2022-10-16T00:21:09;13.00;99.90
73939;DHT22;62291;47.554;8.504;2022-10-16T00:23:36;12.90;99.90
73939;DHT22;62291;47.554;8.504;2022-10-16T00:26:05;13.00;99.90
73939;DHT22;62291;47.554;8.504;2022-10-16T00:28:31;13.00;99.90
73939;DHT22;62291;47.554;8.504;2022-10-16T00:30:58;13.00;99.90
73939;DHT22;62291;47.554;8.504;2022-10-16T00:33:24;13.00;99.90
73939;DHT22;62291;47.554;8.504;2022-10-16T00:35:49;13.00;99.90
73939;DHT22;62291;47.554;8.504;2022-10-16T00:38:16;13.00;99.90
73939;DHT22;62291;47.554;8.504;2022-10-16T00:40:42;13.10;99.90
73939;DHT22;62291;47.554;8.504;2022-10-16T00:48:43;13.00;99.90
73939;DHT22;62291;47.554;8.504;2022-10-16T00:51:10;13.00;99.90
73939;DHT22;62291;47.554;8.504;2022-10-16T00:53:36;13.10;99.90
73939;DHT22;62291;47.554;8.504;2022-10-16T00:56:02;13.10;99.90
73939;DHT22;62291;47.554;8.504;2022-10-16T00:58:29;13.10;99.90
73939;DHT22;62291;47.554;8.504;2022-10-16T01:00:54;13.10;99.90
73939;DHT22;62291;47.554;8.504;2022-10-16T01:03:32;13.10;99.90
73939;DHT22;62291;47.554;8.504;2022-10-16T01:09:01;13.10;99.90
73939;DHT22;62291;47.554;8.504;2022-10-16T01:11:33;13.00;99.90
73939;DHT22;62291;47.554;8.504;2022-10-16T01:14:06;12.90;99.90
73939;DHT22;62291;47.554;8.504;2022-10-16T01:16:58;12.80;99.90
73939;DHT22;62291;47.554;8.504;2022-10-16T01:22:54;12.80;99.90
73939;DHT22;62291;47.554;8.504;2022-10-16T01:27:57;12.90;99.90
73939;DHT22;62291;47.554;8.504;2022-10-16T01:30:26;12.90;99.90
73939;DHT22;62291;47.554;8.504;2022-10-16T01:32:57;12.90;99.90
73939;DHT22;62291;47.554;8.504;2022-10-16T01:35:38;12.90;99.90
73939;DHT22;62291;47.554;8.504;2022-10-16T01:38:19;13.00;99.90
73939;DHT22;62291;47.554;8.504;2022-10-16T01:40:50;13.10;99.90
73939;DHT22;62291;47.554;8.504;2022-10-16T01:43:22;13.10;99.90
73939;DHT22;62291;47.554;8.504;2022-10-16T01:45:49;13.10;99.90
73939;DHT22;62291;47.554;8.504;2022-10-16T01:48:19;13.10;99.90
73939;DHT22;62291;47.554;8.504;2022-10-16T01:50:56;13.10;99.90
73939;DHT22;62291;47.554;8.504;2022-10-16T01:53:23;13.10;99.90
73939;DHT22;62291;47.554;8.504;2022-10-16T01:55:52;13.10;99.90
73939;DHT22;62291;47.554;8.504;2022-10-16T01:58:20;13.10;99.90
73939;DHT22;62291;47.554;8.504;2022-10-16T02:00:47;13.10;99.90
73939;DHT22;62291;47.554;8.504;2022-10-16T02:03:16;13.20;99.90
73939;DHT22;62291;47.554;8.504;2022-10-16T02:05:53;13.20;99.90
73939;DHT22;62291;47.554;8.504;2022-10-16T02:08:21;13.10;99.90
73939;DHT22;62291;47.554;8.504;2022-10-16T02:10:48;13.10;99.90
73939;DHT22;62291;47.554;8.504;2022-10-16T02:15:49;13.10;99.90
73939;DHT22;62291;47.554;8.504;2022-10-16T02:18:15;13.20;99.90
73939;DHT22;62291;47.554;8.504;2022-10-16T02:29:11;13.20;99.90
73939;DHT22;62291;47.554;8.504;2022-10-16T02:31:43;13.10;99.90
73939;DHT22;62291;47.554;8.504;2022-10-16T02:34:13;13.10;99.90
73939;DHT22;62291;47.554;8.504;2022-10-16T02:36:40;13.10;99.90
73939;DHT22;62291;47.554;8.504;2022-10-16T02:39:08;13.10;99.90
73939;DHT22;62291;47.554;8.504;2022-10-16T02:41:34;13.10;99.90
73939;DHT22;62291;47.554;8.504;2022-10-16T02:44:00;13.10;99.90
73939;DHT22;62291;47.554;8.504;2022-10-16T02:46:26;13.10;99.90
73939;DHT22;62291;47.554;8.504;2022-10-16T02:48:51;13.10;99.90
73939;DHT22;62291;47.554;8.504;2022-10-16T02:51:17;13.10;99.90
73939;DHT22;62291;47.554;8.504;2022-10-16T02:53:43;13.10;99.90
73939;DHT22;62291;47.554;8.504;2022-10-16T02:56:09;13.00;99.90
73939;DHT22;62291;47.554;8.504;2022-10-16T02:58:34;13.10;99.90
73939;DHT22;62291;47.554;8.504;2022-10-16T03:01:00;13.00;99.90
73939;DHT22;62291;47.554;8.504;2022-10-16T03:03:26;12.90;99.90
73939;DHT22;62291;47.554;8.504;2022-10-16T03:05:52;12.80;99.90
73939;DHT22;62291;47.554;8.504;2022-10-16T03:08:17;12.80;99.90
73939;DHT22;62291;47.554;8.504;2022-10-16T03:10:49;12.80;99.90
73939;DHT22;62291;47.554;8.504;2022-10-16T03:13:17;12.90;99.90
73939;DHT22;62291;47.554;8.504;2022-10-16T03:15:45;12.90;99.90
73939;DHT22;62291;47.554;8.504;2022-10-16T03:18:11;12.90;99.90
73939;DHT22;62291;47.554;8.504;2022-10-16T03:20:37;12.80;99.90
73939;DHT22;62291;47.554;8.504;2022-10-16T03:23:03;12.80;99.90
73939;DHT22;62291;47.554;8.504;2022-10-16T03:25:28;12.80;99.90
73939;DHT22;62291;47.554;8.504;2022-10-16T03:27:54;12.70;99.90
73939;DHT22;62291;47.554;8.504;2022-10-16T03:30:20;12.70;99.90
73939;DHT22;62291;47.554;8.504;2022-10-16T03:32:46;12.80;99.90
73939;DHT22;62291;47.554;8.504;2022-10-16T03:35:12;12.80;99.90
73939;DHT22;62291;47.554;8.504;2022-10-16T03:37:38;12.80;99.90
73939;DHT22;62291;47.554;8.504;2022-10-16T03:40:05;12.80;99.90
73939;DHT22;62291;47.554;8.504;2022-10-16T03:42:30;12.80;99.90
73939;DHT22;62291;47.554;8.504;2022-10-16T03:44:56;12.80;99.90
73939;DHT22;62291;47.554;8.504;2022-10-16T03:47:22;12.80;99.90
73939;DHT22;62291;47.554;8.504;2022-10-16T03:49:49;12.80;99.90
73939;DHT22;62291;47.554;8.504;2022-10-16T03:52:15;12.90;99.90
73939;DHT22;62291;47.554;8.504;2022-10-16T03:54:41;13.00;99.90
73939;DHT22;62291;47.554;8.504;2022-10-16T03:57:06;12.90;99.90
73939;DHT22;62291;47.554;8.504;2022-10-16T03:59:32;12.90;99.90
73939;DHT22;62291;47.554;8.504;2022-10-16T04:01:58;12.90;99.90
73939;DHT22;62291;47.554;8.504;2022-10-16T04:04:24;12.90;99.90
73939;DHT22;62291;47.554;8.504;2022-10-16T04:06:50;13.00;99.90
73939;DHT22;62291;47.554;8.504;2022-10-16T04:09:16;13.00;99.90
73939;DHT22;62291;47.554;8.504;2022-10-16T04:11:42;13.10;99.90
73939;DHT22;62291;47.554;8.504;2022-10-16T04:14:08;13.10;99.90
73939;DHT22;62291;47.554;8.504;2022-10-16T04:16:34;13.10;99.90
73939;DHT22;62291;47.554;8.504;2022-10-16T04:19:00;13.10;99.90
73939;DHT22;62291;47.554;8.504;2022-10-16T04:21:26;13.00;99.90
73939;DHT22;62291;47.554;8.504;2022-10-16T04:23:52;13.00;99.90
73939;DHT22;62291;47.554;8.504;2022-10-16T04:26:18;13.00;99.90
73939;DHT22;62291;47.554;8.504;2022-10-16T04:28:43;13.00;99.90
73939;DHT22;62291;47.554;8.504;2022-10-16T04:31:09;12.90;99.90
73939;DHT22;62291;47.554;8.504;2022-10-16T04:33:35;12.90;99.90
73939;DHT22;62291;47.554;8.504;2022-10-16T04:36:02;12.90;99.90
73939;DHT22;62291;47.554;8.504;2022-10-16T04:38:29;12.90;99.90
73939;DHT22;62291;47.554;8.504;2022-10-16T04:40:54;12.90;99.90
73939;DHT22;62291;47.554;8.504;2022-10-16T04:43:21;12.90;99.90
73939;DHT22;62291;47.554;8.504;2022-10-16T04:45:47;12.90;99.90
73939;DHT22;62291;47.554;8.504;2022-10-16T04:48:13;12.90;99.90
73939;DHT22;62291;47.554;8.504;2022-10-16T04:50:38;12.90;99.90
73939;DHT22;62291;47.554;8.504;2022-10-16T04:53:05;13.00;99.90
73939;DHT22;62291;47.554;8.504;2022-10-16T04:55:31;13.00;99.90
73939;DHT22;62291;47.554;8.504;2022-10-16T04:57:57;13.00;99.90
73939;DHT22;62291;47.554;8.504;2022-10-16T05:00:23;13.00;99.90
73939;DHT22;62291;47.554;8.504;2022-10-16T05:02:50;12.90;99.90
73939;DHT22;62291;47.554;8.504;2022-10-16T05:05:16;12.90;99.90
73939;DHT22;62291;47.554;8.504;2022-10-16T05:07:42;12.80;99.90
73939;DHT22;62291;47.554;8.504;2022-10-16T05:10:08;12.70;99.90
73939;DHT22;62291;47.554;8.504;2022-10-16T05:12:34;12.70;99.90
73939;DHT22;62291;47.554;8.504;2022-10-16T05:14:59;12.70;99.90
73939;DHT22;62291;47.554;8.504;2022-10-16T05:17:26;12.70;99.90
73939;DHT22;62291;47.554;8.504;2022-10-16T05:19:51;12.70;99.90
73939;DHT22;62291;47.554;8.504;2022-10-16T05:22:17;12.70;99.90
73939;DHT22;62291;47.554;8.504;2022-10-16T05:24:43;12.80;99.90
73939;DHT22;62291;47.554;8.504;2022-10-16T05:27:10;12.70;99.90
73939;DHT22;62291;47.554;8.504;2022-10-16T05:29:36;12.70;99.90
73939;DHT22;62291;47.554;8.504;2022-10-16T05:32:02;12.80;99.90
73939;DHT22;62291;47.554;8.504;2022-10-16T05:34:28;12.80;99.90
73939;DHT22;62291;47.554;8.504;2022-10-16T05:36:53;12.80;99.90
73939;DHT22;62291;47.554;8.504;2022-10-16T05:39:19;12.80;99.90
73939;DHT22;62291;47.554;8.504;2022-10-16T05:41:45;12.80;99.90
73939;DHT22;62291;47.554;8.504;2022-10-16T05:44:11;12.80;99.90
73939;DHT22;62291;47.554;8.504;2022-10-16T05:46:36;12.80;99.90
73939;DHT22;62291;47.554;8.504;2022-10-16T05:49:02;12.80;99.90
73939;DHT22;62291;47.554;8.504;2022-10-16T05:51:28;12.80;99.90
73939;DHT22;62291;47.554;8.504;2022-10-16T05:53:54;12.70;99.90
73939;DHT22;62291;47.554;8.504;2022-10-16T05:56:20;12.60;99.90
73939;DHT22;62291;47.554;8.504;2022-10-16T05:58:45;12.60;99.90
73939;DHT22;62291;47.554;8.504;2022-10-16T06:01:13;12.50;99.90
73939;DHT22;62291;47.554;8.504;2022-10-16T06:03:39;12.50;99.90
73939;DHT22;62291;47.554;8.504;2022-10-16T06:06:17;12.50;99.90
73939;DHT22;62291;47.554;8.504;2022-10-16T06:08:44;12.60;99.90
73939;DHT22;62291;47.554;8.504;2022-10-16T06:11:13;12.60;99.90
73939;DHT22;62291;47.554;8.504;2022-10-16T06:13:39;12.60;99.90
73939;DHT22;62291;47.554;8.504;2022-10-16T06:16:09;12.50;99.90
73939;DHT22;62291;47.554;8.504;2022-10-16T06:18:35;12.50;99.90
73939;DHT22;62291;47.554;8.504;2022-10-16T06:21:10;12.50;99.90
73939;DHT22;62291;47.554;8.504;2022-10-16T06:23:37;12.60;99.90
73939;DHT22;62291;47.554;8.504;2022-10-16T06:26:10;12.60;99.90
73939;DHT22;62291;47.554;8.504;2022-10-16T06:28:37;12.60;99.90
73939;DHT22;62291;47.554;8.504;2022-10-16T06:31:04;12.60;99.90
73939;DHT22;62291;47.554;8.504;2022-10-16T06:33:30;12.70;99.90
73939;DHT22;62291;47.554;8.504;2022-10-16T06:36:22;12.80;99.90
73939;DHT22;62291;47.554;8.504;2022-10-16T06:38:47;12.80;99.90
73939;DHT22;62291;47.554;8.504;2022-10-16T06:41:16;12.90;99.90
73939;DHT22;62291;47.554;8.504;2022-10-16T06:43:42;13.00;99.90
73939;DHT22;62291;47.554;8.504;2022-10-16T06:46:11;13.00;99.90
73939;DHT22;62291;47.554;8.504;2022-10-16T06:48:37;12.90;99.90
73939;DHT22;62291;47.554;8.504;2022-10-16T06:51:08;13.00;99.90
73939;DHT22;62291;47.554;8.504;2022-10-16T06:53:36;13.00;99.90
73939;DHT22;62291;47.554;8.504;2022-10-16T06:56:14;13.10;99.90
73939;DHT22;62291;47.554;8.504;2022-10-16T06:58:40;13.10;99.90
73939;DHT22;62291;47.554;8.504;2022-10-16T07:01:07;13.00;99.90
73939;DHT22;62291;47.554;8.504;2022-10-16T07:03:36;13.10;99.90
73939;DHT22;62291;47.554;8.504;2022-10-16T07:06:02;13.10;99.90
73939;DHT22;62291;47.554;8.504;2022-10-16T07:08:31;13.20;99.90
73939;DHT22;62291;47.554;8.504;2022-10-16T07:10:59;13.30;99.90
73939;DHT22;62291;47.554;8.504;2022-10-16T07:13:25;13.30;99.90
73939;DHT22;62291;47.554;8.504;2022-10-16T07:15:51;13.30;99.90
73939;DHT22;62291;47.554;8.504;2022-10-16T07:18:17;13.30;99.90
73939;DHT22;62291;47.554;8.504;2022-10-16T07:20:42;13.40;99.90
73939;DHT22;62291;47.554;8.504;2022-10-16T07:23:08;13.50;99.90
73939;DHT22;62291;47.554;8.504;2022-10-16T07:25:34;13.60;99.90
73939;DHT22;62291;47.554;8.504;2022-10-16T07:28:00;13.70;99.90
73939;DHT22;62291;47.554;8.504;2022-10-16T07:30:25;13.90;99.90
73939;DHT22;62291;47.554;8.504;2022-10-16T07:32:51;14.30;99.90
73939;DHT22;62291;47.554;8.504;2022-10-16T07:35:17;14.80;99.90
73939;DHT22;62291;47.554;8.504;2022-10-16T07:37:46;15.20;99.90
73939;DHT22;62291;47.554;8.504;2022-10-16T07:40:12;15.50;99.90
73939;DHT22;62291;47.554;8.504;2022-10-16T07:42:38;15.80;99.90
73939;DHT22;62291;47.554;8.504;2022-10-16T07:45:04;16.10;99.90
73939;DHT22;62291;47.554;8.504;2022-10-16T07:47:30;16.10;99.90
73939;DHT22;62291;47.554;8.504;2022-10-16T07:49:55;16.10;99.90
73939;DHT22;62291;47.554;8.504;2022-10-16T07:52:21;16.20;99.90
73939;DHT22;62291;47.554;8.504;2022-10-16T07:54:47;16.40;99.90
73939;DHT22;62291;47.554;8.504;2022-10-16T07:57:13;16.80;99.90
73939;DHT22;62291;47.554;8.504;2022-10-16T07:59:45;17.30;99.90
73939;DHT22;62291;47.554;8.504;2022-10-16T08:02:11;17.50;99.90
73939;DHT22;62291;47.554;8.504;2022-10-16T08:04:37;17.30;99.90
73939;DHT22;62291;47.554;8.504;2022-10-16T08:07:03;16.80;99.90
73939;DHT22;62291;47.554;8.504;2022-10-16T08:09:28;16.50;99.90
73939;DHT22;62291;47.554;8.504;2022-10-16T08:11:54;16.40;99.90
73939;DHT22;62291;47.554;8.504;2022-10-16T08:14:20;16.50;99.90
73939;DHT22;62291;47.554;8.504;2022-10-16T08:16:46;16.60;99.90
73939;DHT22;62291;47.554;8.504;2022-10-16T08:19:11;16.80;99.90
73939;DHT22;62291;47.554;8.504;2022-10-16T08:21:37;16.80;99.90
73939;DHT22;62291;47.554;8.504;2022-10-16T08:24:03;16.90;99.90
73939;DHT22;62291;47.554;8.504;2022-10-16T08:26:29;17.00;99.90
73939;DHT22;62291;47.554;8.504;2022-10-16T08:28:55;17.00;99.90
73939;DHT22;62291;47.554;8.504;2022-10-16T08:31:21;17.20;99.90
73939;DHT22;62291;47.554;8.504;2022-10-16T08:33:47;17.70;99.90
73939;DHT22;62291;47.554;8.504;2022-10-16T08:36:14;17.70;99.90
73939;DHT22;62291;47.554;8.504;2022-10-16T08:38:40;17.90;99.90
73939;DHT22;62291;47.554;8.504;2022-10-16T08:46:54;18.80;99.90
73939;DHT22;62291;47.554;8.504;2022-10-16T08:49:21;18.50;99.90
73939;DHT22;62291;47.554;8.504;2022-10-16T08:51:49;18.50;99.90
73939;DHT22;62291;47.554;8.504;2022-10-16T08:54:34;18.80;99.90
73939;DHT22;62291;47.554;8.504;2022-10-16T08:57:20;19.30;99.90
73939;DHT22;62291;47.554;8.504;2022-10-16T08:59:47;19.70;99.90
73939;DHT22;62291;47.554;8.504;2022-10-16T09:12:58;22.30;99.90
73939;DHT22;62291;47.554;8.504;2022-10-16T09:15:39;22.90;99.90
73939;DHT22;62291;47.554;8.504;2022-10-16T09:18:29;23.40;99.90
73939;DHT22;62291;47.554;8.504;2022-10-16T09:21:23;22.80;99.90
73939;DHT22;62291;47.554;8.504;2022-10-16T09:23:51;22.10;99.90
73939;DHT22;62291;47.554;8.504;2022-10-16T09:26:18;22.00;99.90
73939;DHT22;62291;47.554;8.504;2022-10-16T09:28:45;22.60;99.90
73939;DHT22;62291;47.554;8.504;2022-10-16T09:31:18;22.90;99.90
73939;DHT22;62291;47.554;8.504;2022-10-16T09:33:47;23.10;99.90
73939;DHT22;62291;47.554;8.504;2022-10-16T09:36:13;23.30;99.90
73939;DHT22;62291;47.554;8.504;2022-10-16T09:38:40;23.60;99.90
73939;DHT22;62291;47.554;8.504;2022-10-16T09:41:20;24.10;99.90
73939;DHT22;62291;47.554;8.504;2022-10-16T09:44:21;24.70;99.90
73939;DHT22;62291;47.554;8.504;2022-10-16T09:46:48;24.80;99.90
73939;DHT22;62291;47.554;8.504;2022-10-16T09:49:25;24.70;99.90
73939;DHT22;62291;47.554;8.504;2022-10-16T09:52:09;24.70;99.90
73939;DHT22;62291;47.554;8.504;2022-10-16T09:54:36;25.30;99.90
73939;DHT22;62291;47.554;8.504;2022-10-16T09:57:12;26.00;99.90
73939;DHT22;62291;47.554;8.504;2022-10-16T09:59:55;26.10;99.90
73939;DHT22;62291;47.554;8.504;2022-10-16T10:02:45;26.00;99.90
73939;DHT22;62291;47.554;8.504;2022-10-16T10:05:20;26.30;99.90
73939;DHT22;62291;47.554;8.504;2022-10-16T10:07:59;26.20;99.90
73939;DHT22;62291;47.554;8.504;2022-10-16T10:10:28;25.70;99.90
73939;DHT22;62291;47.554;8.504;2022-10-16T10:12:55;25.30;99.90
73939;DHT22;62291;47.554;8.504;2022-10-16T10:15:22;25.20;99.90
73939;DHT22;62291;47.554;8.504;2022-10-16T10:17:54;24.90;99.90
73939;DHT22;62291;47.554;8.504;2022-10-16T10:20:30;25.00;99.90
73939;DHT22;62291;47.554;8.504;2022-10-16T10:23:01;25.40;99.90
73939;DHT22;62291;47.554;8.504;2022-10-16T10:25:39;25.40;99.90
73939;DHT22;62291;47.554;8.504;2022-10-16T10:33:52;24.80;99.90
73939;DHT22;62291;47.554;8.504;2022-10-16T10:44:07;24.70;99.90
73939;DHT22;62291;47.554;8.504;2022-10-16T10:57:29;23.80;99.90
73939;DHT22;62291;47.554;8.504;2022-10-16T11:00:20;23.80;99.90
73939;DHT22;62291;47.554;8.504;2022-10-16T11:05:29;23.80;99.90
73939;DHT22;62291;47.554;8.504;2022-10-16T11:08:03;23.70;99.90
73939;DHT22;62291;47.554;8.504;2022-10-16T11:13:38;23.50;99.90
73939;DHT22;62291;47.554;8.504;2022-10-16T11:16:37;23.60;99.90
73939;DHT22;62291;47.554;8.504;2022-10-16T11:19:35;23.50;99.90
73939;DHT22;62291;47.554;8.504;2022-10-16T11:22:34;23.50;99.90
73939;DHT22;62291;47.554;8.504;2022-10-16T11:30:27;23.70;99.90
73939;DHT22;62291;47.554;8.504;2022-10-16T11:36:16;24.60;99.90
73939;DHT22;62291;47.554;8.504;2022-10-16T11:41:49;24.90;99.90
73939;DHT22;62291;47.554;8.504;2022-10-16T11:49:47;25.20;99.90
73939;DHT22;62291;47.554;8.504;2022-10-16T11:52:28;25.20;99.90
73939;DHT22;62291;47.554;8.504;2022-10-16T11:55:16;25.20;99.90
73939;DHT22;62291;47.554;8.504;2022-10-16T11:57:51;24.80;99.90
73939;DHT22;62291;47.554;8.504;2022-10-16T12:00:25;24.50;99.90
73939;DHT22;62291;47.554;8.504;2022-10-16T12:06:25;24.60;99.90
73939;DHT22;62291;47.554;8.504;2022-10-16T12:08:54;25.00;99.90
73939;DHT22;62291;47.554;8.504;2022-10-16T12:11:38;25.20;99.90
73939;DHT22;62291;47.554;8.504;2022-10-16T12:14:20;25.40;99.90
73939;DHT22;62291;47.554;8.504;2022-10-16T12:16:57;25.60;99.90
73939;DHT22;62291;47.554;8.504;2022-10-16T12:19:28;25.60;99.90
73939;DHT22;62291;47.554;8.504;2022-10-16T12:22:00;25.70;99.90
73939;DHT22;62291;47.554;8.504;2022-10-16T12:24:33;25.70;99.90
73939;DHT22;62291;47.554;8.504;2022-10-16T12:27:00;25.20;99.90
73939;DHT22;62291;47.554;8.504;2022-10-16T12:29:37;25.00;99.90
73939;DHT22;62291;47.554;8.504;2022-10-16T12:32:05;24.90;99.90
73939;DHT22;62291;47.554;8.504;2022-10-16T12:34:44;24.90;99.90
73939;DHT22;62291;47.554;8.504;2022-10-16T12:39:45;24.80;99.90
73939;DHT22;62291;47.554;8.504;2022-10-16T12:44:52;24.80;99.90
73939;DHT22;62291;47.554;8.504;2022-10-16T12:49:57;24.60;99.90
73939;DHT22;62291;47.554;8.504;2022-10-16T12:52:36;24.50;99.90
73939;DHT22;62291;47.554;8.504;2022-10-16T12:55:03;24.60;99.90
73939;DHT22;62291;47.554;8.504;2022-10-16T13:08:54;24.10;99.90
73939;DHT22;62291;47.554;8.504;2022-10-16T13:17:29;24.10;99.90
73939;DHT22;62291;47.554;8.504;2022-10-16T13:20:31;24.10;99.90
73939;DHT22;62291;47.554;8.504;2022-10-16T13:23:33;24.10;99.90
73939;DHT22;62291;47.554;8.504;2022-10-16T13:26:15;23.90;99.90
73939;DHT22;62291;47.554;8.504;2022-10-16T13:28:42;23.90;99.90
73939;DHT22;62291;47.554;8.504;2022-10-16T13:31:20;23.80;99.90
73939;DHT22;62291;47.554;8.504;2022-10-16T13:33:54;23.70;99.90
73939;DHT22;62291;47.554;8.504;2022-10-16T13:36:26;23.70;99.90
73939;DHT22;62291;47.554;8.504;2022-10-16T13:39:14;23.60;99.90
73939;DHT22;62291;47.554;8.504;2022-10-16T13:41:40;23.50;99.90
73939;DHT22;62291;47.554;8.504;2022-10-16T13:44:19;23.40;99.90
73939;DHT22;62291;47.554;8.504;2022-10-16T13:46:59;23.30;99.90
73939;DHT22;62291;47.554;8.504;2022-10-16T13:49:26;23.30;99.90
73939;DHT22;62291;47.554;8.504;2022-10-16T13:51:59;23.30;99.90
73939;DHT22;62291;47.554;8.504;2022-10-16T13:54:26;23.30;99.90
73939;DHT22;62291;47.554;8.504;2022-10-16T13:56:54;23.20;99.90
73939;DHT22;62291;47.554;8.504;2022-10-16T13:59:25;23.20;99.90
73939;DHT22;62291;47.554;8.504;2022-10-16T14:01:54;23.20;99.90
73939;DHT22;62291;47.554;8.504;2022-10-16T14:04:21;23.30;99.90
73939;DHT22;62291;47.554;8.504;2022-10-16T14:06:50;23.20;99.90
73939;DHT22;62291;47.554;8.504;2022-10-16T14:09:31;23.20;99.90
73939;DHT22;62291;47.554;8.504;2022-10-16T14:12:09;23.10;99.90
73939;DHT22;62291;47.554;8.504;2022-10-16T14:14:41;23.10;99.90
73939;DHT22;62291;47.554;8.504;2022-10-16T14:17:18;23.10;99.90
73939;DHT22;62291;47.554;8.504;2022-10-16T14:19:49;23.00;99.90
73939;DHT22;62291;47.554;8.504;2022-10-16T14:22:49;22.90;99.90
73939;DHT22;62291;47.554;8.504;2022-10-16T14:25:21;22.90;99.90
73939;DHT22;62291;47.554;8.504;2022-10-16T14:28:04;22.80;99.90
73939;DHT22;62291;47.554;8.504;2022-10-16T14:30:32;22.70;99.90
73939;DHT22;62291;47.554;8.504;2022-10-16T14:33:18;22.60;99.90
73939;DHT22;62291;47.554;8.504;2022-10-16T14:35:44;22.60;99.90
73939;DHT22;62291;47.554;8.504;2022-10-16T14:38:19;22.50;99.90
73939;DHT22;62291;47.554;8.504;2022-10-16T14:40:49;22.50;99.90
73939;DHT22;62291;47.554;8.504;2022-10-16T14:43:22;22.40;99.90
73939;DHT22;62291;47.554;8.504;2022-10-16T14:45:56;22.40;99.90
73939;DHT22;62291;47.554;8.504;2022-10-16T14:48:22;22.40;99.90
73939;DHT22;62291;47.554;8.504;2022-10-16T14:50:48;22.30;99.90
73939;DHT22;62291;47.554;8.504;2022-10-16T14:53:13;22.30;99.90
73939;DHT22;62291;47.554;8.504;2022-10-16T14:55:40;22.30;99.90
73939;DHT22;62291;47.554;8.504;2022-10-16T14:58:17;22.20;99.90
73939;DHT22;62291;47.554;8.504;2022-10-16T15:00:44;22.10;99.90
73939;DHT22;62291;47.554;8.504;2022-10-16T15:03:11;22.10;99.90
73939;DHT22;62291;47.554;8.504;2022-10-16T15:05:37;22.10;99.90
73939;DHT22;62291;47.554;8.504;2022-10-16T15:08:03;22.10;99.90
73939;DHT22;62291;47.554;8.504;2022-10-16T15:10:31;22.10;99.90
73939;DHT22;62291;47.554;8.504;2022-10-16T15:12:58;22.00;99.90
73939;DHT22;62291;47.554;8.504;2022-10-16T15:15:37;22.00;99.90
73939;DHT22;62291;47.554;8.504;2022-10-16T15:18:03;22.00;99.90
73939;DHT22;62291;47.554;8.504;2022-10-16T15:20:34;21.90;99.90
73939;DHT22;62291;47.554;8.504;2022-10-16T15:23:27;21.80;99.90
73939;DHT22;62291;47.554;8.504;2022-10-16T15:25:54;21.70;99.90
73939;DHT22;62291;47.554;8.504;2022-10-16T15:28:21;21.60;99.90
73939;DHT22;62291;47.554;8.504;2022-10-16T15:30:53;21.40;99.90
73939;DHT22;62291;47.554;8.504;2022-10-16T15:33:28;21.30;99.90
73939;DHT22;62291;47.554;8.504;2022-10-16T15:35:58;21.10;99.90
73939;DHT22;62291;47.554;8.504;2022-10-16T15:38:24;21.00;99.90
73939;DHT22;62291;47.554;8.504;2022-10-16T15:40:51;20.80;99.90
73939;DHT22;62291;47.554;8.504;2022-10-16T15:43:17;20.70;99.90
73939;DHT22;62291;47.554;8.504;2022-10-16T15:45:44;20.60;99.90
73939;DHT22;62291;47.554;8.504;2022-10-16T15:48:13;20.40;99.90
73939;DHT22;62291;47.554;8.504;2022-10-16T15:50:39;20.20;99.90
73939;DHT22;62291;47.554;8.504;2022-10-16T15:53:05;20.20;99.90
73939;DHT22;62291;47.554;8.504;2022-10-16T15:55:31;20.00;99.90
73939;DHT22;62291;47.554;8.504;2022-10-16T15:57:56;19.90;99.90
73939;DHT22;62291;47.554;8.504;2022-10-16T16:00:22;19.80;99.90
73939;DHT22;62291;47.554;8.504;2022-10-16T16:02:52;19.70;99.90
73939;DHT22;62291;47.554;8.504;2022-10-16T16:05:18;19.50;99.90
73939;DHT22;62291;47.554;8.504;2022-10-16T16:07:45;19.40;99.90
73939;DHT22;62291;47.554;8.504;2022-10-16T16:10:11;19.40;99.90
73939;DHT22;62291;47.554;8.504;2022-10-16T16:12:38;19.20;99.90
73939;DHT22;62291;47.554;8.504;2022-10-16T16:15:05;19.00;99.90
73939;DHT22;62291;47.554;8.504;2022-10-16T16:17:33;18.90;99.90
73939;DHT22;62291;47.554;8.504;2022-10-16T16:19:59;18.80;99.90
73939;DHT22;62291;47.554;8.504;2022-10-16T16:22:24;18.70;99.90
73939;DHT22;62291;47.554;8.504;2022-10-16T16:24:50;18.50;99.90
73939;DHT22;62291;47.554;8.504;2022-10-16T16:27:16;18.30;99.90
73939;DHT22;62291;47.554;8.504;2022-10-16T16:29:42;18.10;99.90
73939;DHT22;62291;47.554;8.504;2022-10-16T16:32:08;17.90;99.90
73939;DHT22;62291;47.554;8.504;2022-10-16T16:34:33;17.80;99.90
73939;DHT22;62291;47.554;8.504;2022-10-16T16:37:00;17.70;99.90
73939;DHT22;62291;47.554;8.504;2022-10-16T16:39:26;17.60;99.90
73939;DHT22;62291;47.554;8.504;2022-10-16T16:41:51;17.50;99.90
73939;DHT22;62291;47.554;8.504;2022-10-16T16:44:17;17.30;99.90
73939;DHT22;62291;47.554;8.504;2022-10-16T16:46:44;17.20;99.90
73939;DHT22;62291;47.554;8.504;2022-10-16T16:49:11;17.10;99.90
73939;DHT22;62291;47.554;8.504;2022-10-16T16:51:38;16.90;99.90
73939;DHT22;62291;47.554;8.504;2022-10-16T16:54:04;16.70;99.90
73939;DHT22;62291;47.554;8.504;2022-10-16T16:56:30;16.50;99.90
73939;DHT22;62291;47.554;8.504;2022-10-16T16:58:57;16.50;99.90
73939;DHT22;62291;47.554;8.504;2022-10-16T17:01:24;16.50;99.90
73939;DHT22;62291;47.554;8.504;2022-10-16T17:03:52;16.50;99.90
73939;DHT22;62291;47.554;8.504;2022-10-16T17:06:24;16.50;99.90
73939;DHT22;62291;47.554;8.504;2022-10-16T17:08:50;16.40;99.90
73939;DHT22;62291;47.554;8.504;2022-10-16T17:11:21;16.40;99.90
73939;DHT22;62291;47.554;8.504;2022-10-16T17:13:48;16.30;99.90
73939;DHT22;62291;47.554;8.504;2022-10-16T17:16:14;16.30;99.90
73939;DHT22;62291;47.554;8.504;2022-10-16T17:18:39;16.10;99.90
73939;DHT22;62291;47.554;8.504;2022-10-16T17:21:08;16.00;99.90
73939;DHT22;62291;47.554;8.504;2022-10-16T17:23:35;15.80;99.90
73939;DHT22;62291;47.554;8.504;2022-10-16T17:26:28;15.60;99.90
73939;DHT22;62291;47.554;8.504;2022-10-16T17:28:56;15.50;99.90
73939;DHT22;62291;47.554;8.504;2022-10-16T17:31:25;15.50;99.90
73939;DHT22;62291;47.554;8.504;2022-10-16T17:33:51;15.50;99.90
73939;DHT22;62291;47.554;8.504;2022-10-16T17:36:18;15.50;99.90
73939;DHT22;62291;47.554;8.504;2022-10-16T17:38:44;15.50;99.90
73939;DHT22;62291;47.554;8.504;2022-10-16T17:41:21;15.50;99.90
73939;DHT22;62291;47.554;8.504;2022-10-16T17:43:48;15.40;99.90